Kezdőlap
METAR-TAF:

METAR-TAF

Repülőterek :

Beja, Portugália

földrajzi szélesség: 38-04-40N, földrajzi hosszúság: 007-55-57W, magasság: 193 m

Jelenlegi meteorológiai megfigyelések

A jelentés 1 órával és 11 perccel ezelõtt készült, 23:00 UTC
Északnyugati szél 7 kt
Hőmérséklet 15°C
Páratartalom 67%
Légköri nyomás 1019 hPa
Látótávolság 10 km, vagy több
felhőtlen 1500 m magasságban, és nincs gomolyfelhõ

METAR: LPBJ 262300Z 32007KT CAVOK 15/09 Q1019

Idő: 01:11 (00:11 UTC)

Előrejelzés

A jelentés 1 órával és 8 perccel ezelõtt készült, 23:03 UTC
Az előrejelzés 27-én 00 óra UTC és 27-én 24 óra UTC között érvényes
Észak-északnyugati szél 8 kt
Látótávolság 10 km, vagy több
Szórványos felhőzet 2500 lábon
Valószínűség 30%
27-én 04 óra UTC és 27-én 09 óra UTC között
Látótávolság: 4000 m
ködfoltok,

TAF: LPBJ 262303Z 2700/2724 33008KT 9999 SCT025 PROB30 2704/2709 4000 BCFG

Meteorológiai megfigyelések és előrejelzések több, mint 4000 repülőtéren (METAR és TAF jelentéseket).

A térképen piros és sárga pontok jelzik az elérhető meteorológiai állomásokat.

Mozgassa az egeret a pont fölött, hogy megjelenjen az állomás neve.

Azután kattintson az időjárási megfigyelések és előrejelzések megtekintéséhez.

A térkép megváltoztatása: kattintson a fekete keresztel jelölt zöld gombra ráközelítéshez, a vonallal jelölt zöld gombra távolításhoz, vagy a zöld nyilakra a szomszédos térképek eléréséhez.


METAR-TAF: